This is the latest recevied weather packets stored in our database for station/object HS5GDX-4. If no packets are shown the sender has not sent any weather packets the latest 10 day(s).
| Time | Temp. | Humidity | Pressure | Rain* | Wind** | Luminosity | Snow |
|---|---|---|---|---|---|---|---|
| 1778318651 | 35.56° C | 42% | 966 hPa | - | - | 0 W/m² | - |
| 1778317724 | 35.56° C | 42% | 966 hPa | - | - | 0 W/m² | - |
| 1778317689 | 35.56° C | 42% | 966 hPa | - | - | 0 W/m² | - |
| 1778317052 | 35° C | 44% | 966 hPa | - | - | 0 W/m² | - |
| 1778316122 | 34.44° C | 45% | 966 hPa | - | - | 0 W/m² | - |
| 1778315194 | 34.44° C | 44% | 966 hPa | - | - | 0 W/m² | - |
| 1778314266 | 35.56° C | 42% | 966 hPa | - | - | 0 W/m² | - |
| 1778313339 | 33.33° C | 46% | 966 hPa | - | - | 0 W/m² | - |
| 1778312410 | 33.33° C | 45% | 966 hPa | - | - | 0 W/m² | - |
| 1778311482 | 33.33° C | 46% | 967 hPa | - | - | 0 W/m² | - |
| 1778310554 | 32.78° C | 47% | 967 hPa | - | - | 0 W/m² | - |
| 1778309626 | 32.78° C | 47% | 967 hPa | - | - | 0 W/m² | - |
| 1778308696 | 32.78° C | 48% | 967 hPa | - | - | 0 W/m² | - |
| 1778308562 | 32.22° C | 49% | 967 hPa | - | - | 0 W/m² | - |
| 1778306151 | 33.89° C | 46% | 968 hPa | - | - | 0 W/m² | - |
| 1778304371 | 33.89° C | 46% | 969 hPa | - | - | 0 W/m² | - |
| 1778303273 | 33.33° C | 47% | 969 hPa | - | - | 0 W/m² | - |
| 1778302328 | 33.89° C | 46% | 969 hPa | - | - | 0 W/m² | - |
| 1778301399 | 32.78° C | 49% | 969 hPa | - | - | 0 W/m² | - |
| 1778300472 | 33.89° C | 47% | 970 hPa | - | - | 0 W/m² | - |
| 1778299543 | 33.33° C | 48% | 970 hPa | - | - | 0 W/m² | - |
| 1778298615 | 32.78° C | 50% | 970 hPa | - | - | 0 W/m² | - |
| 1778297686 | 33.33° C | 49% | 970 hPa | - | - | 0 W/m² | - |
| 1778297546 | 33.89° C | 48% | 970 hPa | - | - | 0 W/m² | - |
| 1778297262 | 33.33° C | 50% | 970 hPa | - | - | 0 W/m² | - |
* Rain since midnight (hover to see other rain measurements)
** Current wind speed in m/s (hover to see current wind gust speed)